Flight Track Log - Related Links

Times and Time Zones

All times are in EDT time to prevent confusion due to time zone crossing. See the TCF3538 flight status page for this flight to view local times or setup timezone preferences in your user account.

Time Position Orientation Groundspeed Altitude Reporting Facility
EDT Latitude Longitude Course Direction KTS MPH feet Rate Location/Type
Sat 04:58:27 PM 26.6647 -81.6797 352° North 235 270 5,900  Level Miami Center
Sat 04:59:00 PM 26.9120 -81.7333 North  Level FlightAware Approximate
Sat 04:59:27 PM 26.7400 -81.6783 North 247 284 8,700  Level Miami Center
Sat 05:00:00 PM 27.0069 -81.7333 North  Level FlightAware Approximate
Sat 05:00:27 PM 26.8208 -81.6981 348° North 269 310 11,100  Level Miami Center
Sat 05:01:00 PM 27.0969 -81.7654 340° North  Level FlightAware Approximate
Sat 05:01:27 PM 26.9097 -81.7203 347° North 301 346 13,200  Level Miami Center
Sat 05:02:00 PM 27.2012 -81.8015 352° North  Level Estimated
Sat 05:02:27 PM 27.0031 -81.7428 348° North 327 376 14,900  Level Miami Center
Sat 05:03:00 PM 27.3054 -81.8375 352° North  Level Estimated
Sat 05:03:27 PM 27.0939 -81.7722 344° North 338 389 14,900  Level Miami Center
Sat 05:04:27 PM 27.1867 -81.8019 344° North 338 389 14,900 800 Level Miami Center
Sat 05:05:27 PM 27.2775 -81.8314 344° North 338 389 16,500 1,900 Climbing Miami Center
Sat 05:06:27 PM 27.3747 -81.8614 345° North 343 395 18,700 2,250 Climbing Miami Center
Sat 05:07:27 PM 27.4797 -81.8986 343° North 353 406 21,000 2,050 Climbing Miami Center
Sat 05:08:27 PM 27.5808 -81.9336 343° North 365 420 22,800 1,750 Climbing Miami Center
Sat 05:09:27 PM 27.6839 -81.9733 341° North 384 442 24,500 1,370 Climbing Miami Center
Sat 05:13:16 PM 28.0994 -82.0856 347° North 426 490 29,400 1,287 Climbing Jacksonville Center
Sat 05:14:16 PM 28.2019 -82.1506 331° Northwest 432 497 30,700 1,150 Climbing Jacksonville Center
Sat 05:15:16 PM 28.3025 -82.2161 330° Northwest 415 478 31,700 950 Climbing Jacksonville Center
Sat 05:16:16 PM 28.4072 -82.2789 332° Northwest 437 503 32,600 850 Climbing Jacksonville Center
Sat 05:17:16 PM 28.5078 -82.3469 329° Northwest 447 514 33,400 700 Climbing Jacksonville Center
Sat 05:18:16 PM 28.6103 -82.4078 332° Northwest 437 503 34,000 300 Climbing Jacksonville Center
Sat 05:19:16 PM 28.7044 -82.4736 328° Northwest 432 497 34,000  Level Jacksonville Center
Sat 05:20:16 PM 28.8047 -82.5372 331° Northwest 432 497 34,000  Level Jacksonville Center
Sat 05:21:16 PM 28.9031 -82.5983 331° Northwest 432 497 34,000  Level Jacksonville Center
Sat 05:22:16 PM 29.0033 -82.6622 331° Northwest 432 497 34,000  Level Jacksonville Center
Sat 05:23:16 PM 29.1014 -82.7261 330° Northwest 406 467 34,000  Level Jacksonville Center
Sat 05:24:16 PM 29.2017 -82.7928 330° Northwest 406 467 34,000  Level Jacksonville Center
Sat 05:25:16 PM 29.3000 -82.8569 330° Northwest 401 461 34,000  Level Jacksonville Center
Sat 05:26:16 PM 29.4000 -82.9211 331° Northwest 401 461 34,000  Level Jacksonville Center
Sat 05:27:16 PM 29.5022 -82.9881 330° Northwest 406 467 34,000  Level Jacksonville Center
Sat 05:28:16 PM 29.6025 -83.0525 331° Northwest 411 473 34,000  Level Jacksonville Center
Sat 05:29:16 PM 29.7089 -83.1053 337° Northwest 411 473 34,000  Level Jacksonville Center
Sat 05:30:16 PM 29.8194 -83.1536 339° North 416 479 34,000  Level Jacksonville Center
Sat 05:31:16 PM 29.9258 -83.2017 339° North 410 472 34,000  Level Jacksonville Center
Sat 05:32:16 PM 30.0239 -83.2475 338° Northwest 415 478 34,000  Level Jacksonville Center
Sat 05:33:16 PM 30.1322 -83.2986 338° Northwest 415 478 34,000  Level Jacksonville Center
Sat 05:34:16 PM 30.2386 -83.3469 339° North 415 478 34,000  Level Jacksonville Center
Sat 05:35:16 PM 30.3447 -83.3981 337° Northwest 415 478 34,000  Level Jacksonville Center
Sat 05:36:16 PM 30.4533 -83.4469 339° North 415 478 34,000  Level Jacksonville Center
Sat 05:37:16 PM 30.5617 -83.4956 339° North 415 478 34,000  Level Jacksonville Center
Sat 05:38:16 PM 30.6678 -83.5494 336° Northwest 415 478 34,000  Level Jacksonville Center
Sat 05:39:16 PM 30.7697 -83.5986 337° Northwest 407 468 34,000  Level Jacksonville Center
Sat 05:40:16 PM 30.8761 -83.6503 337° Northwest 407 468 34,000  Level Jacksonville Center
Sat 05:41:16 PM 30.9842 -83.6994 339° North 407 468 34,000  Level Jacksonville Center
Sat 05:42:16 PM 31.0906 -83.7514 337° Northwest 412 474 34,000  Level Jacksonville Center
Sat 05:43:16 PM 31.1967 -83.8033 337° Northwest 412 474 34,000  Level Jacksonville Center
Sat 05:44:16 PM 31.3028 -83.8531 338° Northwest 412 474 34,000  Level Jacksonville Center
Sat 05:46:41 PM 31.5650 -83.9731 339° North 414 476 34,000  Level Atlanta Center
Sat 05:47:41 PM 31.6819 -83.9975 350° North 414 476 34,000  Level Atlanta Center
Sat 05:48:41 PM 31.7989 -84.0242 349° North 419 482 34,000  Level Atlanta Center
Sat 05:49:41 PM 31.9136 -84.0461 351° North 419 482 34,000  Level Atlanta Center
Sat 05:50:41 PM 32.0325 -84.0731 349° North 419 482 34,000  Level Atlanta Center
Sat 05:51:41 PM 32.1558 -84.1025 349° North 419 482 34,000  Level Atlanta Center
Sat 05:52:41 PM 32.2725 -84.1272 350° North 419 482 34,000  Level Atlanta Center
Sat 05:53:41 PM 32.3872 -84.1519 350° North 419 482 34,000  Level Atlanta Center
Sat 05:54:41 PM 32.5022 -84.1767 350° North 419 482 34,000  Level Atlanta Center
Sat 05:55:41 PM 32.6147 -84.2042 348° North 414 476 34,000  Level Atlanta Center
Sat 05:56:41 PM 32.7294 -84.2339 348° North 414 476 34,000  Level Atlanta Center
Sat 05:57:41 PM 32.8464 -84.2589 350° North 419 482 34,000  Level Atlanta Center
Sat 05:58:41 PM 32.9611 -84.2839 350° North 426 490 34,000  Level Atlanta Center
Sat 05:59:41 PM 33.0781 -84.3117 349° North 426 490 34,000  Level Atlanta Center
Sat 06:00:41 PM 33.1947 -84.3367 350° North 426 490 34,000  Level Atlanta Center
Sat 06:01:41 PM 33.3136 -84.3644 349° North 433 498 34,000  Level Atlanta Center
Sat 06:02:41 PM 33.4283 -84.3922 349° North 427 491 34,000  Level Atlanta Center
Sat 06:03:41 PM 33.5369 -84.4178 349° North 432 497 34,000  Level Atlanta Center
Sat 06:04:41 PM 33.6536 -84.4431 350° North 425 489 34,000  Level Atlanta Center
Sat 06:05:41 PM 33.7664 -84.4711 348° North 425 489 34,000  Level Atlanta Center
Sat 06:06:41 PM 33.8831 -84.4992 349° North 431 496 34,000  Level Atlanta Center
Sat 06:07:41 PM 34.0208 -84.5350 348° North 440 506 34,000  Level Atlanta Center
Sat 06:08:41 PM 34.1458 -84.5608 350° North 445 512 34,000  Level Atlanta Center
Sat 06:09:41 PM 34.2647 -84.5892 349° North 451 519 34,000  Level Atlanta Center
Sat 06:10:41 PM 34.3858 -84.6025 355° North 445 512 34,000  Level Atlanta Center
Sat 06:11:41 PM 34.5108 -84.6161 355° North 445 512 34,000  Level Atlanta Center
Sat 06:12:41 PM 34.6214 -84.6244 356° North 445 512 34,000  Level Atlanta Center
Sat 06:13:41 PM 34.7550 -84.6381 355° North 439 505 34,000  Level Atlanta Center
Sat 06:14:41 PM 34.8781 -84.6464 357° North 439 505 34,000  Level Atlanta Center
Sat 06:15:41 PM 35.0053 -84.6575 356° North 439 505 34,000  Level Atlanta Center
Sat 06:16:41 PM 35.1303 -84.6686 356° North 439 505 34,000  Level Atlanta Center
Sat 06:17:41 PM 35.2556 -84.6797 356° North 444 511 34,000  Level Atlanta Center
Sat 06:18:41 PM 35.3806 -84.6908 356° North 444 511 34,000  Level Atlanta Center
Sat 06:19:41 PM 35.5078 -84.7019 356° North 444 511 34,000  Level Atlanta Center
Sat 06:20:41 PM 35.6308 -84.7133 356° North 444 511 34,000  Level Atlanta Center
Sat 06:21:41 PM 35.7581 -84.7219 357° North 444 511 34,000  Level Atlanta Center
Sat 06:22:41 PM 35.8853 -84.7308 357° North 449 517 34,000  Level Atlanta Center
Sat 06:24:30 PM 36.1086 -84.7528 355° North 454 522 34,000  Level Indianapolis Center
Sat 06:25:31 PM 36.2328 -84.7633 356° North 450 518 34,000  Level Indianapolis Center
Sat 06:26:33 PM 36.3578 -84.7753 356° North 450 518 34,000  Level Indianapolis Center
Sat 06:27:34 PM 36.4864 -84.7606 North 470 541 34,000  Level Indianapolis Center
Sat 06:28:36 PM 36.6133 -84.7228 13° North 468 539 34,000  Level Indianapolis Center
Sat 06:29:37 PM 36.7664 -84.6781 13° North 470 541 34,000  Level Indianapolis Center
Sat 06:30:39 PM 36.8928 -84.6408 13° North 468 539 34,000  Level Indianapolis Center
Sat 06:31:41 PM 37.0186 -84.6033 13° North 465 535 34,000  Level Indianapolis Center
Sat 06:32:42 PM 37.1381 -84.5667 14° North 463 533 34,000  Level Indianapolis Center
Sat 06:33:44 PM 37.2644 -84.5289 13° North 464 534 34,000  Level Indianapolis Center
Sat 06:34:45 PM 37.3908 -84.4936 13° North 463 533 34,000  Level Indianapolis Center
Sat 06:35:47 PM 37.5317 -84.5267 349° North 444 511 34,000  Level Indianapolis Center
Sat 06:36:48 PM 37.6506 -84.5725 343° North 443 510 34,000  Level Indianapolis Center
Sat 06:37:50 PM 37.7672 -84.6161 344° North 439 505 34,000  Level Indianapolis Center
Sat 06:38:52 PM 37.8842 -84.6592 344° North 437 503 34,000  Level Indianapolis Center
Sat 06:39:53 PM 38.0031 -84.7039 343° North 441 507 34,000  Level Indianapolis Center
Sat 06:40:55 PM 38.1214 -84.7464 344° North 443 510 34,000  Level Indianapolis Center
Sat 06:41:56 PM 38.2403 -84.7925 343° North 444 511 34,000  Level Indianapolis Center
Sat 06:42:58 PM 38.3581 -84.8372 343° North 442 509 34,000  Level Indianapolis Center
Sat 06:43:59 PM 38.4975 -84.8900 344° North 445 512 34,000  Level Indianapolis Center
Sat 06:45:01 PM 38.6153 -84.9375 343° North 443 510 34,000 -293 Level Indianapolis Center
Sat 06:46:02 PM 38.7400 -84.9850 343° North 453 521 33,400 -829 Descending Indianapolis Center
Sat 06:47:04 PM 38.8603 -85.0300 344° North 448 516 32,300 -1,073 Descending Indianapolis Center
Sat 06:48:05 PM 38.9769 -85.0761 343° North 440 506 31,200 -1,082 Descending Indianapolis Center
Sat 06:49:06 PM 39.0939 -85.1214 343° North 437 503 30,100 -585 Descending Indianapolis Center
Sat 06:50:08 PM 39.2136 -85.1683 343° North 443 510 30,000 -49 Descending Indianapolis Center
Sat 06:51:09 PM 39.3378 -85.2181 343° North 458 527 30,000  Level Indianapolis Center
Sat 06:52:11 PM 39.4647 -85.2672 343° North 469 540 30,000  Level Indianapolis Center
Sat 06:53:12 PM 39.5894 -85.3158 343° North 468 539 30,000 -541 Level Indianapolis Center
Sat 06:54:13 PM 39.7347 -85.3739 343° North 467 537 28,900 -1,024 Descending Indianapolis Center
Sat 06:55:15 PM 39.8542 -85.4211 343° North 452 520 27,900 -1,122 Descending Indianapolis Center
Sat 06:56:16 PM 39.9722 -85.4683 343° North 445 512 26,600 -984 Descending Indianapolis Center
Sat 06:57:17 PM 40.0872 -85.5156 343° North 435 501 25,900 -826 Descending Indianapolis Center
Sat 06:58:05 PM 40.1831 -85.5517 344° North 434 499 25,100 -991 Descending Chicago Center
Sat 06:59:06 PM 40.2958 -85.6056 340° North 438 504 24,100 -537 Descending Chicago Center
Sat 07:00:08 PM 40.3783 -85.7119 316° Northwest 416 479 24,000 -49 Descending Chicago Center
Sat 07:01:09 PM 40.4572 -85.8272 312° West 421 484 24,000 -146 Level Chicago Center
Sat 07:02:11 PM 40.5350 -85.9431 311° West 422 486 23,700 -780 Descending Chicago Center
Sat 07:03:12 PM 40.6136 -86.0564 312° West 419 482 22,400 -1,220 Descending Chicago Center
Sat 07:04:14 PM 40.6933 -86.1764 311° West 414 476 21,200 -1,161 Descending Chicago Center
Sat 07:05:16 PM 40.7683 -86.2881 312° West 409 471 20,000 -1,122 Descending Chicago Center
Sat 07:06:17 PM 40.8442 -86.4025 311° West 412 474 18,900 -1,122 Descending Chicago Center
Sat 07:07:19 PM 40.9175 -86.5136 311° West 403 464 17,700 -1,073 Descending Chicago Center
Sat 07:08:20 PM 40.9897 -86.6222 311° West 396 456 16,700 -1,024 Descending Chicago Center
Sat 07:09:22 PM 41.0661 -86.7364 312° West 387 445 15,600 -1,073 Descending Chicago Center
Sat 07:10:23 PM 41.1361 -86.8419 311° West 384 442 14,500 -1,122 Descending Chicago Center
Sat 07:11:25 PM 41.2167 -86.9661 311° West 374 430 13,300 -1,122 Descending Chicago Center
Sat 07:12:26 PM 41.2842 -87.0694 311° West 372 428 12,200 -1,073 Descending Chicago Center
Sat 07:13:28 PM 41.3500 -87.1711 311° West 367 422 11,100 -576 Descending Chicago Center
Sat 07:14:31 PM 41.4333 -87.2667 319° Northwest 364 419 11,000 -51 Descending Chicago TRACON
Sat 07:15:25 PM 41.5000 -87.3500 317° Northwest 363 418 11,000  Level Chicago TRACON
Sat 07:16:25 PM 41.5833 -87.4333 323° Northwest 365 420 11,000  Level Chicago TRACON
Sat 07:17:25 PM 41.6500 -87.5167 317° Northwest 363 418 11,000  Level Chicago TRACON
Sat 07:18:19 PM 41.7167 -87.6000 317° Northwest 362 417 11,000 -86 Level Chicago TRACON
Sat 07:18:35 PM 41.7417 -87.6253 323° Northwest 362 417 10,900 -873 Descending Chicago Center
Sat 07:19:14 PM 41.7833 -87.6667 323° Northwest 304 350 10,200 -1,558 Descending Chicago TRACON
Sat 07:20:19 PM 41.8500 -87.7500 317° Northwest 299 344 8,200 -1,563 Descending Chicago TRACON
Sat 07:21:13 PM 41.8833 -87.8500 294° West 291 335 7,100 -595 Descending Chicago TRACON
Sat 07:22:20 PM 41.8833 -87.9500 270° West 239 275 7,000 -99 Descending Chicago TRACON
Sat 07:23:14 PM 41.8833 -88.0167 270° West 213 245 6,900 -684 Descending Chicago TRACON
Sat 07:24:14 PM 41.8833 -88.0833 270° West 187 215 5,700 -1,200 Descending Chicago TRACON
Sat 07:25:14 PM 41.8833 -88.1500 270° West 186 214 4,500 -1,121 Descending Chicago TRACON
Sat 07:25:45 PM 41.8864 -88.1869 276° West 188 216 4,000 -326 Descending Chicago Center
Sat 07:26:46 PM 41.9369 -88.1994 350° North 188 216 4,000  Level Chicago Center
Sat 07:27:48 PM 41.9661 -88.1539 49° Northeast 179 206 4,000 -488 Level Chicago Center
Sat 07:28:49 PM 41.9681 -88.0931 88° East 169 194 3,000 -934 Descending Chicago Center
Sat 07:29:50 PM 41.9689 -88.0347 89° East 163 188 2,100 -885 Descending Chicago Center

Login

Don't have an account? Register now (free) for customized features, flight alerts, and more!